sensor_id;sensor_type;location;lat;lon;timestamp;temperature;humidity
27544;DHT22;17996;51.056;3.656;2022-09-20T00:00:38;12.90;99.90
27544;DHT22;17996;51.056;3.656;2022-09-20T00:03:04;12.90;99.90
27544;DHT22;17996;51.056;3.656;2022-09-20T00:05:36;12.70;99.90
27544;DHT22;17996;51.056;3.656;2022-09-20T00:08:03;12.80;99.90
27544;DHT22;17996;51.056;3.656;2022-09-20T00:10:29;12.70;99.90
27544;DHT22;17996;51.056;3.656;2022-09-20T00:12:56;12.70;99.90
27544;DHT22;17996;51.056;3.656;2022-09-20T00:15:22;12.70;99.90
27544;DHT22;17996;51.056;3.656;2022-09-20T00:17:47;12.60;99.90
27544;DHT22;17996;51.056;3.656;2022-09-20T00:20:13;12.60;99.90
27544;DHT22;17996;51.056;3.656;2022-09-20T00:22:38;12.60;99.90
27544;DHT22;17996;51.056;3.656;2022-09-20T00:25:04;12.50;99.90
27544;DHT22;17996;51.056;3.656;2022-09-20T00:27:30;12.50;99.90
27544;DHT22;17996;51.056;3.656;2022-09-20T00:29:56;12.50;99.90
27544;DHT22;17996;51.056;3.656;2022-09-20T00:32:23;12.50;99.90
27544;DHT22;17996;51.056;3.656;2022-09-20T00:34:49;12.50;99.90
27544;DHT22;17996;51.056;3.656;2022-09-20T00:37:37;12.50;99.90
27544;DHT22;17996;51.056;3.656;2022-09-20T00:40:06;12.40;99.90
27544;DHT22;17996;51.056;3.656;2022-09-20T00:42:32;12.40;99.90
27544;DHT22;17996;51.056;3.656;2022-09-20T00:45:00;12.40;99.90
27544;DHT22;17996;51.056;3.656;2022-09-20T00:50:12;12.40;99.90
27544;DHT22;17996;51.056;3.656;2022-09-20T00:52:41;12.40;99.90
27544;DHT22;17996;51.056;3.656;2022-09-20T00:55:09;12.40;99.90
27544;DHT22;17996;51.056;3.656;2022-09-20T00:57:36;12.50;99.90
27544;DHT22;17996;51.056;3.656;2022-09-20T01:00:07;12.50;99.90
27544;DHT22;17996;51.056;3.656;2022-09-20T01:02:36;12.50;99.90
27544;DHT22;17996;51.056;3.656;2022-09-20T01:05:03;12.50;99.90
27544;DHT22;17996;51.056;3.656;2022-09-20T01:07:28;12.50;99.90
27544;DHT22;17996;51.056;3.656;2022-09-20T01:09:54;12.50;99.90
27544;DHT22;17996;51.056;3.656;2022-09-20T01:12:23;12.70;99.90
27544;DHT22;17996;51.056;3.656;2022-09-20T01:14:51;12.60;99.90
27544;DHT22;17996;51.056;3.656;2022-09-20T01:17:18;12.60;99.90
27544;DHT22;17996;51.056;3.656;2022-09-20T01:28:13;12.70;99.90
27544;DHT22;17996;51.056;3.656;2022-09-20T01:30:46;12.60;99.90
27544;DHT22;17996;51.056;3.656;2022-09-20T01:35:49;12.70;99.90
27544;DHT22;17996;51.056;3.656;2022-09-20T01:40:54;12.60;99.90
27544;DHT22;17996;51.056;3.656;2022-09-20T01:43:42;12.70;99.90
27544;DHT22;17996;51.056;3.656;2022-09-20T01:46:32;12.70;99.90
27544;DHT22;17996;51.056;3.656;2022-09-20T01:49:23;12.70;99.90
27544;DHT22;17996;51.056;3.656;2022-09-20T01:55:06;12.60;99.90
27544;DHT22;17996;51.056;3.656;2022-09-20T01:58:09;12.50;99.90
27544;DHT22;17996;51.056;3.656;2022-09-20T02:16:56;12.30;99.90
27544;DHT22;17996;51.056;3.656;2022-09-20T02:22:50;12.10;99.90
27544;DHT22;17996;51.056;3.656;2022-09-20T02:28:06;12.00;99.90
27544;DHT22;17996;51.056;3.656;2022-09-20T02:33:43;12.00;99.90
27544;DHT22;17996;51.056;3.656;2022-09-20T02:39:16;12.00;99.90
27544;DHT22;17996;51.056;3.656;2022-09-20T02:42:02;12.00;99.90
27544;DHT22;17996;51.056;3.656;2022-09-20T02:44:53;12.00;99.90
27544;DHT22;17996;51.056;3.656;2022-09-20T02:47:51;12.00;99.90
27544;DHT22;17996;51.056;3.656;2022-09-20T02:55:43;11.90;99.90
27544;DHT22;17996;51.056;3.656;2022-09-20T03:04:21;11.90;99.90
27544;DHT22;17996;51.056;3.656;2022-09-20T03:07:07;11.90;99.90
27544;DHT22;17996;51.056;3.656;2022-09-20T03:13:06;11.90;99.90
27544;DHT22;17996;51.056;3.656;2022-09-20T03:27:06;11.90;99.90
27544;DHT22;17996;51.056;3.656;2022-09-20T03:35:12;11.90;99.90
27544;DHT22;17996;51.056;3.656;2022-09-20T03:38:51;11.90;99.90
27544;DHT22;17996;51.056;3.656;2022-09-20T03:49:37;11.90;99.90
27544;DHT22;17996;51.056;3.656;2022-09-20T03:52:37;11.90;99.90
27544;DHT22;17996;51.056;3.656;2022-09-20T03:55:42;11.90;99.90
27544;DHT22;17996;51.056;3.656;2022-09-20T04:01:28;11.90;99.90
27544;DHT22;17996;51.056;3.656;2022-09-20T04:04:14;11.80;99.90
27544;DHT22;17996;51.056;3.656;2022-09-20T04:18:37;11.70;99.90
27544;DHT22;17996;51.056;3.656;2022-09-20T04:26:40;11.60;99.90
27544;DHT22;17996;51.056;3.656;2022-09-20T04:29:24;11.50;99.90
27544;DHT22;17996;51.056;3.656;2022-09-20T04:37:42;11.50;99.90
27544;DHT22;17996;51.056;3.656;2022-09-20T04:42:58;11.40;99.90
27544;DHT22;17996;51.056;3.656;2022-09-20T05:02:42;11.30;99.90
27544;DHT22;17996;51.056;3.656;2022-09-20T05:08:44;11.20;99.90
27544;DHT22;17996;51.056;3.656;2022-09-20T05:11:45;11.20;99.90
27544;DHT22;17996;51.056;3.656;2022-09-20T05:14:22;11.20;99.90
27544;DHT22;17996;51.056;3.656;2022-09-20T05:25:29;11.10;99.90
27544;DHT22;17996;51.056;3.656;2022-09-20T05:28:24;11.10;99.90
27544;DHT22;17996;51.056;3.656;2022-09-20T05:31:21;11.00;99.90
27544;DHT22;17996;51.056;3.656;2022-09-20T05:37:04;11.00;99.90
27544;DHT22;17996;51.056;3.656;2022-09-20T05:45:59;10.90;99.90
27544;DHT22;17996;51.056;3.656;2022-09-20T06:02:40;11.40;99.90
27544;DHT22;17996;51.056;3.656;2022-09-20T06:14:16;11.50;99.90
27544;DHT22;17996;51.056;3.656;2022-09-20T06:17:20;11.50;99.90
27544;DHT22;17996;51.056;3.656;2022-09-20T06:22:45;11.50;99.90
27544;DHT22;17996;51.056;3.656;2022-09-20T06:25:22;11.50;99.90
27544;DHT22;17996;51.056;3.656;2022-09-20T06:27:53;11.50;99.90
27544;DHT22;17996;51.056;3.656;2022-09-20T06:35:34;11.60;99.90
27544;DHT22;17996;51.056;3.656;2022-09-20T06:38:06;11.60;99.90
27544;DHT22;17996;51.056;3.656;2022-09-20T06:40:58;11.60;99.90
27544;DHT22;17996;51.056;3.656;2022-09-20T06:43:44;11.60;99.90
27544;DHT22;17996;51.056;3.656;2022-09-20T06:46:10;11.70;99.90
27544;DHT22;17996;51.056;3.656;2022-09-20T06:48:38;11.70;99.90
27544;DHT22;17996;51.056;3.656;2022-09-20T06:51:06;11.70;99.90
27544;DHT22;17996;51.056;3.656;2022-09-20T06:53:34;11.80;99.90
27544;DHT22;17996;51.056;3.656;2022-09-20T06:56:01;11.80;99.90
27544;DHT22;17996;51.056;3.656;2022-09-20T06:58:27;11.80;99.90
27544;DHT22;17996;51.056;3.656;2022-09-20T07:00:52;11.90;99.90
27544;DHT22;17996;51.056;3.656;2022-09-20T07:03:18;11.90;99.90
27544;DHT22;17996;51.056;3.656;2022-09-20T07:05:44;12.10;99.90
27544;DHT22;17996;51.056;3.656;2022-09-20T07:08:10;12.10;99.90
27544;DHT22;17996;51.056;3.656;2022-09-20T07:10:37;12.20;99.90
27544;DHT22;17996;51.056;3.656;2022-09-20T07:13:03;12.30;99.90
27544;DHT22;17996;51.056;3.656;2022-09-20T07:15:33;12.40;99.90
27544;DHT22;17996;51.056;3.656;2022-09-20T07:17:59;12.40;99.90
27544;DHT22;17996;51.056;3.656;2022-09-20T07:20:25;12.40;99.90
27544;DHT22;17996;51.056;3.656;2022-09-20T07:22:51;12.50;99.90
27544;DHT22;17996;51.056;3.656;2022-09-20T07:25:18;12.60;99.90
27544;DHT22;17996;51.056;3.656;2022-09-20T07:27:45;12.60;99.90
27544;DHT22;17996;51.056;3.656;2022-09-20T07:30:12;12.60;99.90
27544;DHT22;17996;51.056;3.656;2022-09-20T07:32:39;12.70;99.90
27544;DHT22;17996;51.056;3.656;2022-09-20T07:35:09;12.70;99.90
27544;DHT22;17996;51.056;3.656;2022-09-20T07:37:35;12.70;99.90
27544;DHT22;17996;51.056;3.656;2022-09-20T07:40:01;12.70;99.90
27544;DHT22;17996;51.056;3.656;2022-09-20T07:42:28;12.80;99.90
27544;DHT22;17996;51.056;3.656;2022-09-20T07:44:54;12.80;99.90
27544;DHT22;17996;51.056;3.656;2022-09-20T07:47:20;12.70;99.90
27544;DHT22;17996;51.056;3.656;2022-09-20T07:49:50;12.80;99.90
27544;DHT22;17996;51.056;3.656;2022-09-20T07:52:16;12.80;99.90
27544;DHT22;17996;51.056;3.656;2022-09-20T07:54:42;12.90;99.90
27544;DHT22;17996;51.056;3.656;2022-09-20T07:57:10;12.80;99.90
27544;DHT22;17996;51.056;3.656;2022-09-20T07:59:36;12.90;99.90
27544;DHT22;17996;51.056;3.656;2022-09-20T08:02:01;12.90;99.90
27544;DHT22;17996;51.056;3.656;2022-09-20T08:04:27;12.90;99.90
27544;DHT22;17996;51.056;3.656;2022-09-20T08:06:53;12.90;99.90
27544;DHT22;17996;51.056;3.656;2022-09-20T08:09:18;13.00;99.90
27544;DHT22;17996;51.056;3.656;2022-09-20T08:11:44;13.00;99.90
27544;DHT22;17996;51.056;3.656;2022-09-20T08:14:15;13.10;99.90
27544;DHT22;17996;51.056;3.656;2022-09-20T08:16:46;13.10;99.90
27544;DHT22;17996;51.056;3.656;2022-09-20T08:19:17;13.10;99.90
27544;DHT22;17996;51.056;3.656;2022-09-20T08:21:43;13.20;99.90
27544;DHT22;17996;51.056;3.656;2022-09-20T08:24:09;13.20;99.90
27544;DHT22;17996;51.056;3.656;2022-09-20T08:26:34;13.20;99.90
27544;DHT22;17996;51.056;3.656;2022-09-20T08:29:00;13.30;99.90
27544;DHT22;17996;51.056;3.656;2022-09-20T08:31:28;13.40;99.90
27544;DHT22;17996;51.056;3.656;2022-09-20T08:33:59;13.40;99.90
27544;DHT22;17996;51.056;3.656;2022-09-20T08:36:30;13.40;99.90
27544;DHT22;17996;51.056;3.656;2022-09-20T08:38:56;13.50;99.90
27544;DHT22;17996;51.056;3.656;2022-09-20T08:41:32;13.50;99.90
27544;DHT22;17996;51.056;3.656;2022-09-20T08:44:23;13.60;99.90
27544;DHT22;17996;51.056;3.656;2022-09-20T08:47:20;13.60;99.90
27544;DHT22;17996;51.056;3.656;2022-09-20T08:49:47;13.70;99.90
27544;DHT22;17996;51.056;3.656;2022-09-20T08:52:18;13.80;99.90
27544;DHT22;17996;51.056;3.656;2022-09-20T08:54:45;13.90;99.90
27544;DHT22;17996;51.056;3.656;2022-09-20T08:57:16;14.00;99.90
27544;DHT22;17996;51.056;3.656;2022-09-20T08:59:43;14.10;99.90
27544;DHT22;17996;51.056;3.656;2022-09-20T09:02:17;14.20;99.90
27544;DHT22;17996;51.056;3.656;2022-09-20T09:04:45;14.30;99.90
27544;DHT22;17996;51.056;3.656;2022-09-20T09:07:16;14.40;99.90
27544;DHT22;17996;51.056;3.656;2022-09-20T09:09:46;14.50;99.90
27544;DHT22;17996;51.056;3.656;2022-09-20T09:12:18;14.60;99.90
27544;DHT22;17996;51.056;3.656;2022-09-20T09:14:46;14.70;99.90
27544;DHT22;17996;51.056;3.656;2022-09-20T09:17:27;14.80;99.90
27544;DHT22;17996;51.056;3.656;2022-09-20T09:19:55;14.90;99.90
27544;DHT22;17996;51.056;3.656;2022-09-20T09:22:29;15.00;99.90
27544;DHT22;17996;51.056;3.656;2022-09-20T09:27:34;15.20;99.90
27544;DHT22;17996;51.056;3.656;2022-09-20T09:30:01;15.20;99.90
27544;DHT22;17996;51.056;3.656;2022-09-20T09:32:29;15.30;99.90
27544;DHT22;17996;51.056;3.656;2022-09-20T09:35:41;15.20;99.90
27544;DHT22;17996;51.056;3.656;2022-09-20T09:37:59;15.30;99.90
27544;DHT22;17996;51.056;3.656;2022-09-20T09:40:30;15.30;99.90
27544;DHT22;17996;51.056;3.656;2022-09-20T09:42:59;15.30;99.90
27544;DHT22;17996;51.056;3.656;2022-09-20T09:45:29;15.30;99.90
27544;DHT22;17996;51.056;3.656;2022-09-20T09:47:56;15.30;99.90
27544;DHT22;17996;51.056;3.656;2022-09-20T09:50:26;15.30;99.90
27544;DHT22;17996;51.056;3.656;2022-09-20T09:53:21;15.40;99.90
27544;DHT22;17996;51.056;3.656;2022-09-20T09:56:06;15.40;99.90
27544;DHT22;17996;51.056;3.656;2022-09-20T09:58:44;15.50;99.90
27544;DHT22;17996;51.056;3.656;2022-09-20T10:17:53;16.00;99.90
27544;DHT22;17996;51.056;3.656;2022-09-20T10:20:40;16.10;99.90
27544;DHT22;17996;51.056;3.656;2022-09-20T10:26:01;16.20;99.90
27544;DHT22;17996;51.056;3.656;2022-09-20T10:32:06;16.30;99.90
27544;DHT22;17996;51.056;3.656;2022-09-20T10:40:19;16.40;99.90
27544;DHT22;17996;51.056;3.656;2022-09-20T10:42:59;16.40;99.90
27544;DHT22;17996;51.056;3.656;2022-09-20T10:45:59;16.40;99.90
27544;DHT22;17996;51.056;3.656;2022-09-20T10:48:32;16.40;99.90
27544;DHT22;17996;51.056;3.656;2022-09-20T10:51:17;16.40;99.90
27544;DHT22;17996;51.056;3.656;2022-09-20T10:56:51;16.20;99.90
27544;DHT22;17996;51.056;3.656;2022-09-20T11:04:48;15.60;99.90
27544;DHT22;17996;51.056;3.656;2022-09-20T11:10:18;15.50;99.90
27544;DHT22;17996;51.056;3.656;2022-09-20T11:12:50;15.60;99.90
27544;DHT22;17996;51.056;3.656;2022-09-20T11:15:20;15.60;99.90
27544;DHT22;17996;51.056;3.656;2022-09-20T11:18:01;15.70;99.90
27544;DHT22;17996;51.056;3.656;2022-09-20T11:20:55;15.80;99.90
27544;DHT22;17996;51.056;3.656;2022-09-20T11:24:09;15.80;99.90
27544;DHT22;17996;51.056;3.656;2022-09-20T11:26:41;15.90;99.90
27544;DHT22;17996;51.056;3.656;2022-09-20T11:31:47;16.00;99.90
27544;DHT22;17996;51.056;3.656;2022-09-20T11:36:57;16.00;99.90
27544;DHT22;17996;51.056;3.656;2022-09-20T11:42:04;16.10;99.90
27544;DHT22;17996;51.056;3.656;2022-09-20T11:44:31;16.10;99.90
27544;DHT22;17996;51.056;3.656;2022-09-20T11:47:09;16.20;99.90
27544;DHT22;17996;51.056;3.656;2022-09-20T11:52:51;16.30;99.90
27544;DHT22;17996;51.056;3.656;2022-09-20T11:58:16;16.40;99.90
27544;DHT22;17996;51.056;3.656;2022-09-20T12:00:49;16.40;99.90
27544;DHT22;17996;51.056;3.656;2022-09-20T12:03:39;16.50;99.90
27544;DHT22;17996;51.056;3.656;2022-09-20T12:06:20;16.50;99.90
27544;DHT22;17996;51.056;3.656;2022-09-20T12:08:50;16.40;99.90
27544;DHT22;17996;51.056;3.656;2022-09-20T12:11:35;16.30;99.90
27544;DHT22;17996;51.056;3.656;2022-09-20T12:14:16;16.20;99.90
27544;DHT22;17996;51.056;3.656;2022-09-20T12:16:44;16.00;99.90
27544;DHT22;17996;51.056;3.656;2022-09-20T12:19:11;15.90;99.90
27544;DHT22;17996;51.056;3.656;2022-09-20T12:24:24;16.00;99.90
27544;DHT22;17996;51.056;3.656;2022-09-20T12:26:57;16.00;99.90
27544;DHT22;17996;51.056;3.656;2022-09-20T12:31:58;16.20;99.90
27544;DHT22;17996;51.056;3.656;2022-09-20T12:44:24;16.40;99.90
27544;DHT22;17996;51.056;3.656;2022-09-20T12:52:47;16.50;99.90
27544;DHT22;17996;51.056;3.656;2022-09-20T12:55:41;16.50;99.90
27544;DHT22;17996;51.056;3.656;2022-09-20T13:08:38;16.60;99.90
27544;DHT22;17996;51.056;3.656;2022-09-20T13:15:57;16.60;99.90
27544;DHT22;17996;51.056;3.656;2022-09-20T13:18:24;16.70;99.90
27544;DHT22;17996;51.056;3.656;2022-09-20T13:20:53;16.80;99.90
27544;DHT22;17996;51.056;3.656;2022-09-20T13:23:26;16.70;99.90
27544;DHT22;17996;51.056;3.656;2022-09-20T13:25:55;16.70;99.90
27544;DHT22;17996;51.056;3.656;2022-09-20T13:28:43;16.70;99.90
27544;DHT22;17996;51.056;3.656;2022-09-20T13:31:36;16.80;99.90
27544;DHT22;17996;51.056;3.656;2022-09-20T13:34:18;16.90;99.90
27544;DHT22;17996;51.056;3.656;2022-09-20T13:36:45;17.00;99.90
27544;DHT22;17996;51.056;3.656;2022-09-20T13:39:31;17.00;99.90
27544;DHT22;17996;51.056;3.656;2022-09-20T13:42:05;17.10;99.90
27544;DHT22;17996;51.056;3.656;2022-09-20T13:44:33;17.20;99.90
27544;DHT22;17996;51.056;3.656;2022-09-20T13:46:59;17.30;99.90
27544;DHT22;17996;51.056;3.656;2022-09-20T13:49:30;17.30;99.90
27544;DHT22;17996;51.056;3.656;2022-09-20T13:51:56;17.30;99.90
27544;DHT22;17996;51.056;3.656;2022-09-20T13:54:25;17.30;99.90
27544;DHT22;17996;51.056;3.656;2022-09-20T13:56:57;17.40;99.90
27544;DHT22;17996;51.056;3.656;2022-09-20T13:59:25;17.40;99.90
27544;DHT22;17996;51.056;3.656;2022-09-20T14:01:54;17.50;99.90
27544;DHT22;17996;51.056;3.656;2022-09-20T14:04:23;17.60;99.90
27544;DHT22;17996;51.056;3.656;2022-09-20T14:06:51;17.70;99.90
27544;DHT22;17996;51.056;3.656;2022-09-20T14:09:24;17.70;99.90
27544;DHT22;17996;51.056;3.656;2022-09-20T14:11:53;17.80;99.90
27544;DHT22;17996;51.056;3.656;2022-09-20T14:14:19;17.90;99.90
27544;DHT22;17996;51.056;3.656;2022-09-20T14:16:45;17.90;99.90
27544;DHT22;17996;51.056;3.656;2022-09-20T14:19:16;17.90;99.90
27544;DHT22;17996;51.056;3.656;2022-09-20T14:21:43;17.90;99.90
27544;DHT22;17996;51.056;3.656;2022-09-20T14:26:43;17.80;99.90
27544;DHT22;17996;51.056;3.656;2022-09-20T14:34:44;17.40;99.90
27544;DHT22;17996;51.056;3.656;2022-09-20T14:39:50;17.30;99.90
27544;DHT22;17996;51.056;3.656;2022-09-20T14:42:19;17.40;99.90
27544;DHT22;17996;51.056;3.656;2022-09-20T14:44:49;17.60;99.90
27544;DHT22;17996;51.056;3.656;2022-09-20T14:47:28;17.60;99.90
27544;DHT22;17996;51.056;3.656;2022-09-20T14:49:54;17.80;99.90
27544;DHT22;17996;51.056;3.656;2022-09-20T14:57:34;18.10;99.90
27544;DHT22;17996;51.056;3.656;2022-09-20T15:00:04;18.10;99.90
27544;DHT22;17996;51.056;3.656;2022-09-20T15:02:34;18.30;99.90
27544;DHT22;17996;51.056;3.656;2022-09-20T15:05:00;18.40;99.90
27544;DHT22;17996;51.056;3.656;2022-09-20T15:07:26;18.60;99.90
27544;DHT22;17996;51.056;3.656;2022-09-20T15:09:52;18.60;99.90
27544;DHT22;17996;51.056;3.656;2022-09-20T15:12:19;18.60;99.90
27544;DHT22;17996;51.056;3.656;2022-09-20T15:14:46;18.70;99.90
27544;DHT22;17996;51.056;3.656;2022-09-20T15:17:20;18.60;99.90
27544;DHT22;17996;51.056;3.656;2022-09-20T15:19:47;18.60;99.90
27544;DHT22;17996;51.056;3.656;2022-09-20T15:22:13;18.60;99.90
27544;DHT22;17996;51.056;3.656;2022-09-20T15:24:40;18.50;99.90
27544;DHT22;17996;51.056;3.656;2022-09-20T15:27:06;18.40;99.90
27544;DHT22;17996;51.056;3.656;2022-09-20T15:29:32;18.30;99.90
27544;DHT22;17996;51.056;3.656;2022-09-20T15:31:58;18.40;99.90
27544;DHT22;17996;51.056;3.656;2022-09-20T15:34:24;18.60;99.90
27544;DHT22;17996;51.056;3.656;2022-09-20T15:36:50;18.70;99.90
27544;DHT22;17996;51.056;3.656;2022-09-20T15:39:16;18.70;99.90
27544;DHT22;17996;51.056;3.656;2022-09-20T15:41:41;18.60;99.90
27544;DHT22;17996;51.056;3.656;2022-09-20T15:44:11;18.50;99.90
27544;DHT22;17996;51.056;3.656;2022-09-20T15:46:39;18.30;99.90
27544;DHT22;17996;51.056;3.656;2022-09-20T15:49:06;18.20;99.90
27544;DHT22;17996;51.056;3.656;2022-09-20T15:51:33;18.20;99.90
27544;DHT22;17996;51.056;3.656;2022-09-20T15:54:04;18.20;99.90
27544;DHT22;17996;51.056;3.656;2022-09-20T15:56:37;18.00;99.90
27544;DHT22;17996;51.056;3.656;2022-09-20T15:59:06;18.00;99.90
27544;DHT22;17996;51.056;3.656;2022-09-20T16:01:41;17.90;99.90
27544;DHT22;17996;51.056;3.656;2022-09-20T16:04:15;17.80;99.90
27544;DHT22;17996;51.056;3.656;2022-09-20T16:06:44;17.70;99.90
27544;DHT22;17996;51.056;3.656;2022-09-20T16:09:10;17.70;99.90
27544;DHT22;17996;51.056;3.656;2022-09-20T16:11:36;17.60;99.90
27544;DHT22;17996;51.056;3.656;2022-09-20T16:14:02;17.50;99.90
27544;DHT22;17996;51.056;3.656;2022-09-20T16:16:29;17.50;99.90
27544;DHT22;17996;51.056;3.656;2022-09-20T16:18:55;17.50;99.90
27544;DHT22;17996;51.056;3.656;2022-09-20T16:21:41;17.40;99.90
27544;DHT22;17996;51.056;3.656;2022-09-20T16:24:08;17.30;99.90
27544;DHT22;17996;51.056;3.656;2022-09-20T16:26:35;17.40;99.90
27544;DHT22;17996;51.056;3.656;2022-09-20T16:29:01;17.40;99.90
27544;DHT22;17996;51.056;3.656;2022-09-20T16:31:44;17.30;99.90
27544;DHT22;17996;51.056;3.656;2022-09-20T16:34:20;17.40;99.90
27544;DHT22;17996;51.056;3.656;2022-09-20T16:36:48;17.30;99.90
27544;DHT22;17996;51.056;3.656;2022-09-20T16:39:15;17.30;99.90
27544;DHT22;17996;51.056;3.656;2022-09-20T16:41:41;17.20;99.90
27544;DHT22;17996;51.056;3.656;2022-09-20T16:44:07;17.20;99.90
27544;DHT22;17996;51.056;3.656;2022-09-20T16:46:34;17.20;99.90
27544;DHT22;17996;51.056;3.656;2022-09-20T16:49:08;17.10;99.90
27544;DHT22;17996;51.056;3.656;2022-09-20T16:51:37;17.10;99.90
27544;DHT22;17996;51.056;3.656;2022-09-20T16:54:08;17.10;99.90
27544;DHT22;17996;51.056;3.656;2022-09-20T16:56:39;17.00;99.90
27544;DHT22;17996;51.056;3.656;2022-09-20T16:59:05;17.00;99.90
27544;DHT22;17996;51.056;3.656;2022-09-20T17:01:32;16.90;99.90
27544;DHT22;17996;51.056;3.656;2022-09-20T17:03:58;16.90;99.90
27544;DHT22;17996;51.056;3.656;2022-09-20T17:06:25;16.80;99.90
27544;DHT22;17996;51.056;3.656;2022-09-20T17:08:55;16.80;99.90
27544;DHT22;17996;51.056;3.656;2022-09-20T17:11:24;16.70;99.90
27544;DHT22;17996;51.056;3.656;2022-09-20T17:13:52;16.60;99.90
27544;DHT22;17996;51.056;3.656;2022-09-20T17:16:20;16.60;99.90
27544;DHT22;17996;51.056;3.656;2022-09-20T17:18:57;16.50;99.90
27544;DHT22;17996;51.056;3.656;2022-09-20T17:21:23;16.50;99.90
27544;DHT22;17996;51.056;3.656;2022-09-20T17:23:52;16.40;99.90
27544;DHT22;17996;51.056;3.656;2022-09-20T17:26:29;16.30;99.90
27544;DHT22;17996;51.056;3.656;2022-09-20T17:28:59;16.20;99.90
27544;DHT22;17996;51.056;3.656;2022-09-20T17:31:30;16.20;99.90
27544;DHT22;17996;51.056;3.656;2022-09-20T17:34:02;16.10;99.90
27544;DHT22;17996;51.056;3.656;2022-09-20T17:36:34;16.10;99.90
27544;DHT22;17996;51.056;3.656;2022-09-20T17:39:01;16.00;99.90
27544;DHT22;17996;51.056;3.656;2022-09-20T17:41:27;16.00;99.90
27544;DHT22;17996;51.056;3.656;2022-09-20T17:43:55;15.90;99.90
27544;DHT22;17996;51.056;3.656;2022-09-20T17:46:24;15.90;99.90
27544;DHT22;17996;51.056;3.656;2022-09-20T17:48:55;15.90;99.90
27544;DHT22;17996;51.056;3.656;2022-09-20T17:51:26;15.80;99.90
27544;DHT22;17996;51.056;3.656;2022-09-20T17:53:52;15.70;99.90
27544;DHT22;17996;51.056;3.656;2022-09-20T17:56:20;15.70;99.90
27544;DHT22;17996;51.056;3.656;2022-09-20T17:58:48;15.60;99.90
27544;DHT22;17996;51.056;3.656;2022-09-20T18:01:16;15.70;99.90
27544;DHT22;17996;51.056;3.656;2022-09-20T18:03:44;15.50;99.90
27544;DHT22;17996;51.056;3.656;2022-09-20T18:06:46;15.50;99.90
27544;DHT22;17996;51.056;3.656;2022-09-20T18:09:24;15.50;99.90
27544;DHT22;17996;51.056;3.656;2022-09-20T18:11:51;15.40;99.90
27544;DHT22;17996;51.056;3.656;2022-09-20T18:14:19;15.40;99.90
27544;DHT22;17996;51.056;3.656;2022-09-20T18:16:49;15.30;99.90
27544;DHT22;17996;51.056;3.656;2022-09-20T18:19:15;15.30;99.90
27544;DHT22;17996;51.056;3.656;2022-09-20T18:21:41;15.20;99.90
27544;DHT22;17996;51.056;3.656;2022-09-20T18:24:09;15.20;99.90
27544;DHT22;17996;51.056;3.656;2022-09-20T18:26:35;15.10;99.90
27544;DHT22;17996;51.056;3.656;2022-09-20T18:31:38;15.10;99.90
27544;DHT22;17996;51.056;3.656;2022-09-20T18:34:09;15.00;99.90
27544;DHT22;17996;51.056;3.656;2022-09-20T18:36:36;15.00;99.90
27544;DHT22;17996;51.056;3.656;2022-09-20T18:39:04;15.00;99.90
27544;DHT22;17996;51.056;3.656;2022-09-20T18:41:32;14.90;99.90
27544;DHT22;17996;51.056;3.656;2022-09-20T18:43:59;14.90;99.90
27544;DHT22;17996;51.056;3.656;2022-09-20T18:46:27;14.80;99.90
27544;DHT22;17996;51.056;3.656;2022-09-20T18:48:56;14.80;99.90
27544;DHT22;17996;51.056;3.656;2022-09-20T18:51:24;14.70;99.90
27544;DHT22;17996;51.056;3.656;2022-09-20T18:53:50;14.70;99.90
27544;DHT22;17996;51.056;3.656;2022-09-20T18:56:31;14.70;99.90
27544;DHT22;17996;51.056;3.656;2022-09-20T18:59:00;14.70;99.90
27544;DHT22;17996;51.056;3.656;2022-09-20T19:01:38;14.60;99.90
27544;DHT22;17996;51.056;3.656;2022-09-20T19:10:05;14.50;99.90
27544;DHT22;17996;51.056;3.656;2022-09-20T19:26:28;14.40;99.90
27544;DHT22;17996;51.056;3.656;2022-09-20T19:28:57;14.40;99.90
27544;DHT22;17996;51.056;3.656;2022-09-20T19:31:31;14.40;99.90
27544;DHT22;17996;51.056;3.656;2022-09-20T19:33:59;14.30;99.90
27544;DHT22;17996;51.056;3.656;2022-09-20T19:42:27;14.30;99.90
27544;DHT22;17996;51.056;3.656;2022-09-20T19:45:34;14.30;99.90
27544;DHT22;17996;51.056;3.656;2022-09-20T19:48:11;14.20;99.90
27544;DHT22;17996;51.056;3.656;2022-09-20T19:50:45;14.10;99.90
27544;DHT22;17996;51.056;3.656;2022-09-20T19:53:15;14.20;99.90
27544;DHT22;17996;51.056;3.656;2022-09-20T19:55:46;14.10;99.90
27544;DHT22;17996;51.056;3.656;2022-09-20T19:58:12;14.10;99.90
27544;DHT22;17996;51.056;3.656;2022-09-20T20:00:39;14.10;99.90
27544;DHT22;17996;51.056;3.656;2022-09-20T20:03:09;14.10;99.90
27544;DHT22;17996;51.056;3.656;2022-09-20T20:05:38;14.10;99.90
27544;DHT22;17996;51.056;3.656;2022-09-20T20:08:31;14.00;99.90
27544;DHT22;17996;51.056;3.656;2022-09-20T20:11:26;14.00;99.90
27544;DHT22;17996;51.056;3.656;2022-09-20T20:13:54;14.00;99.90
27544;DHT22;17996;51.056;3.656;2022-09-20T20:20:10;13.90;99.90
27544;DHT22;17996;51.056;3.656;2022-09-20T20:28:28;13.80;99.90
27544;DHT22;17996;51.056;3.656;2022-09-20T20:30:54;13.70;99.90
27544;DHT22;17996;51.056;3.656;2022-09-20T20:33:20;13.80;99.90
27544;DHT22;17996;51.056;3.656;2022-09-20T20:35:57;13.70;99.90
27544;DHT22;17996;51.056;3.656;2022-09-20T20:38:24;13.70;99.90
27544;DHT22;17996;51.056;3.656;2022-09-20T20:41:01;13.60;99.90
27544;DHT22;17996;51.056;3.656;2022-09-20T20:43:29;13.60;99.90
27544;DHT22;17996;51.056;3.656;2022-09-20T20:45:55;13.60;99.90
27544;DHT22;17996;51.056;3.656;2022-09-20T20:48:21;13.60;99.90
27544;DHT22;17996;51.056;3.656;2022-09-20T20:50:47;13.60;99.90
27544;DHT22;17996;51.056;3.656;2022-09-20T20:53:13;13.60;99.90
27544;DHT22;17996;51.056;3.656;2022-09-20T20:55:39;13.50;99.90
27544;DHT22;17996;51.056;3.656;2022-09-20T20:58:05;13.50;99.90
27544;DHT22;17996;51.056;3.656;2022-09-20T21:00:32;13.50;99.90
27544;DHT22;17996;51.056;3.656;2022-09-20T21:02:58;13.50;99.90
27544;DHT22;17996;51.056;3.656;2022-09-20T21:05:26;13.50;99.90
27544;DHT22;17996;51.056;3.656;2022-09-20T21:07:52;13.50;99.90
27544;DHT22;17996;51.056;3.656;2022-09-20T21:10:18;13.50;99.90
27544;DHT22;17996;51.056;3.656;2022-09-20T21:12:44;13.40;99.90
27544;DHT22;17996;51.056;3.656;2022-09-20T21:15:10;13.40;99.90
27544;DHT22;17996;51.056;3.656;2022-09-20T21:17:36;13.30;99.90
27544;DHT22;17996;51.056;3.656;2022-09-20T21:20:02;13.30;99.90
27544;DHT22;17996;51.056;3.656;2022-09-20T21:22:28;13.30;99.90
27544;DHT22;17996;51.056;3.656;2022-09-20T21:24:54;13.30;99.90
27544;DHT22;17996;51.056;3.656;2022-09-20T21:27:20;13.30;99.90
27544;DHT22;17996;51.056;3.656;2022-09-20T21:29:45;13.20;99.90
27544;DHT22;17996;51.056;3.656;2022-09-20T21:32:11;13.20;99.90